Station: Maria Island  

  Atmospheric Gas Attenuation - ITU Rec 676-11   ----------------- dB/100km -----------------
Date Time Temp RH % AH g/m3 Dew Point Wind Direction Speed kph Gust kph Barometer mB Rainfall Since 9am 24GHz 47GHz 76GHz 122GHz 134GHz 241GHz
08/05 12:30 12.6 67 7.41 6.6 52 61 1014.2 0 17.1 24.4 35.7 93.5 84.4 289.2
08/05 12:20 12.2 71 7.66 7.1 52 57 1014 0 17.7 24.9 36.9 96.6 88.0 302.0
08/05 12:10 12.4 69 7.54 7 57 63 1013.9 0 17.4 24.6 36.3 95.0 86.2 295.7
08/05 12:00 12.4 67 7.32 6.5 43 54 1013.9 0 16.9 24.3 35.4 92.7 83.4 285.8
08/05 11:50 12.6 68 7.52 6.8 37 44 1013.9 0 17.3 24.5 36.1 94.6 85.8 294.1
08/05 11:40 12.4 66 7.21 6.2 54 63 1013.7 0 16.7 24.1 35.0 91.6 82.0 280.8
08/05 11:30 11.7 73 7.64 7 61 78 1013.6 0 17.6 25.0 37.0 96.9 88.3 302.9
08/05 11:20 11.9 72 7.63 7 61 67 1013.7 0 17.6 24.9 36.9 96.6 88.0 301.7
08/05 11:10 12.1 70 7.51 6.8 57 59 1013.5 0 17.3 24.6 36.3 95.0 86.2 295.4
08/05 11:00 12.5 67 7.37 6.5 50 67 1013.3 0 17.0 24.3 35.5 93.1 83.9 287.6
08/05 10:50 12.1 67 7.19 6.1 54 65 1013.1 0 16.7 24.1 35.0 91.7 82.0 280.8
08/05 10:40 11.9 67 7.1 6.1 56 59 1013.1 0 16.5 24.0 34.8 91.0 81.1 277.5
08/05 10:30 12.1 67 7.19 6.2 50 65 1012.9 0 16.7 24.1 35.0 91.6 82.0 280.8
08/05 10:20 12.1 71 7.61 7 43 48 1012.7 0 17.6 24.8 36.6 96.0 87.4 299.8
08/05 10:10 12.1 70 7.51 6.8 52 59 1012.5 0 17.3 24.6 36.2 94.9 86.1 295.2
08/05 10:00 12.1 69 7.4 6.6 56 74 1012.4 0 17.1 24.4 35.8 93.8 84.7 290.1
08/05 09:50 11.8 68 7.16 6.1 61 69 1012.1 0 16.6 24.1 35.0 91.6 81.9 280.3
08/05 09:40 11.6 66 6.86 5.6 56 61 1012.2 0 16.0 23.7 33.9 88.7 78.2 267.6
08/05 09:30 11.7 70 7.32 6.4 43 65 1012.2 0 16.9 24.4 35.7 93.4 84.0 287.9
08/05 09:20 11.4 73 7.49 6.7 39 44 1012.4 0 17.3 24.8 36.5 95.6 86.6 296.8
08/05 09:10 11.1 76 7.66 7 46 52 1012.5 0 17.7 25.1 37.3 97.8 89.2 305.9
08/05 09:00 11.3 70 7.14 6 48 61 1012.3 0 16.6 24.2 35.1 92.0 82.1 281.2
08/05 08:50 11.5 71 7.33 6.4 37 44 1011.9 0.8 17.0 24.5 35.8 93.7 84.4 289.0
08/05 08:40 11.4 69 7.08 5.9 56 65 1011.7 0.8 16.4 24.1 34.8 91.2 81.2 278.0
08/05 08:30 11.2 69 7 5.7 52 70 1011.5 0.8 16.3 24.0 34.6 90.6 80.4 275.1
08/05 08:20 11.2 69 7 5.7 46 52 1011.1 0.8 16.3 24.0 34.6 90.5 80.4 275.0
08/05 08:10 11.3 70 7.14 6 57 65 1010.7 0.8 16.6 24.2 35.1 91.8 82.0 280.9
08/05 08:00 11.2 70 7.1 5.9 59 83 1010.3 0.8 16.5 24.1 34.9 91.5 81.6 279.3
08/05 07:50 11.2 72 7.3 6.3 57 69 1010.2 0.8 16.9 24.4 35.7 93.6 84.2 288.4
08/05 07:40 11 72 7.21 6.2 59 78 1009.8 0.8 16.7 24.3 35.4 92.8 83.2 284.9
08/05 07:30 10.9 74 7.36 6.5 57 67 1009.4 0.8 17.1 24.6 36.1 94.5 85.2 292.0
08/05 07:20 10.8 73 7.22 6.1 57 63 1009.3 0.8 16.8 24.4 35.5 93.1 83.5 286.0
08/05 07:10 11 73 7.31 6.3 65 74 1009.1 0.8 17.0 24.5 35.8 93.8 84.4 289.3
08/05 07:00 10.8 75 7.41 6.6 69 80 1008.8 0.8 17.2 24.7 36.3 95.1 85.9 294.5
08/05 06:50 10.7 75 7.37 6.5 59 85 1009 0.8 17.1 24.6 36.2 94.8 85.5 293.1
08/05 06:40 10.9 76 7.56 6.8 48 56 1009.2 0.8 17.5 24.9 36.8 96.6 87.8 301.2
08/05 06:30 10.8 77 7.61 6.9 39 52 1009.3 0.8 17.6 25.0 37.1 97.3 88.6 303.9
08/05 06:20 10.7 79 7.76 7.2 41 44 1009.2 0.8 17.9 25.3 37.7 99.0 90.7 311.2
08/05 06:10 10.5 80 7.76 7.3 37 43 1009 0.8 17.9 25.3 37.8 99.2 90.9 312.0
08/05 06:00 10.5 80 7.76 7.2 41 54 1008.9 0.8 17.9 25.3 37.8 99.2 90.9 312.0
08/05 05:50 10.9 76 7.56 6.8 41 44 1008.6 0.8 17.5 24.9 36.8 96.5 87.8 301.0
08/05 05:40 10.8 75 7.41 6.5 48 52 1008.3 0.8 17.2 24.6 36.3 95.0 85.9 294.4
08/05 05:30 11.2 74 7.5 6.7 43 50 1008.2 0.8 17.4 24.7 36.4 95.5 86.6 297.0
08/05 05:20 11.1 75 7.56 6.8 52 57 1008 0.8 17.5 24.8 36.7 96.2 87.5 300.1
08/05 05:10 11.1 76 7.66 7 30 32 1008 0.8 17.7 24.9 37.1 97.3 88.8 304.7
08/05 05:00 11.2 74 7.5 6.7 33 44 1007.7 0.8 17.4 24.7 36.4 95.5 86.6 296.9
08/05 04:50 11.4 72 7.39 6.5 33 35 1007.6 0.8 17.1 24.4 35.9 94.0 84.9 291.1
08/05 04:40 11.7 74 7.74 7.2 30 33 1007.3 0.8 17.9 24.9 37.1 97.3 89.1 305.9
08/05 04:30 11.6 74 7.69 7.1 37 44 1007 0.8 17.7 24.8 36.9 96.9 88.6 303.9
08/05 04:20 11.7 74 7.74 7.2 37 41 1006.8 0.8 17.9 24.9 37.1 97.3 89.1 305.8
08/05 04:10 11.7 73 7.64 7 43 48 1006.5 0.8 17.6 24.7 36.7 96.2 87.8 301.1
08/05 04:00 11.6 76 7.9 7.5 43 56 1006.4 0.8 18.2 25.1 37.8 99.1 91.3 313.4
08/05 03:50 11.5 76 7.85 7.4 44 46 1006.2 0.8 18.1 25.1 37.6 98.7 90.7 311.5
08/05 03:40 11.6 76 7.9 7.5 39 43 1006.2 0.8 18.2 25.1 37.8 99.1 91.3 313.4
08/05 03:30 11.7 74 7.74 7.2 46 56 1005.9 0.8 17.9 24.8 37.1 97.2 89.0 305.5
08/05 03:20 11.6 76 7.9 7.5 52 59 1005.6 0.8 18.2 25.1 37.7 99.0 91.2 313.2
08/05 03:10 11.4 78 8.01 7.7 52 72 1005.5 0.8 18.4 25.3 38.3 100.4 92.9 319.1
08/05 03:00 11.7 82 8.58 8.7 41 59 1005.8 0.6 19.7 26.2 40.4 106.3 100.2 344.6
08/05 02:50 10.8 86 8.5 8.5 37 41 1005.8 0.6 19.5 26.3 40.6 106.6 100.3 344.8
08/05 02:40 10.9 86 8.56 8.6 28 30 1005.9 0.6 19.7 26.4 40.8 107.1 101.0 347.3
08/05 02:30 11 85 8.51 8.6 32 39 1005.8 0.4 19.5 26.3 40.5 106.4 100.2 344.4
08/05 02:20 11.3 82 8.37 8.3 33 35 1005.6 0.4 19.2 26.0 39.8 104.5 97.9 336.4
08/05 02:10 12.4 75 8.2 8.1 41 44 1005.4 0.4 18.8 25.4 38.5 101.2 94.2 323.8
08/05 02:00 12.5 71 7.81 7.4 37 46 1005.1 0.4 18.0 24.7 36.9 96.9 89.0 305.4
08/05 01:50 12.8 69 7.73 7.4 35 41 1005.1 0.4 17.8 24.5 36.5 95.7 87.6 300.6
08/05 01:40 12.7 69 7.68 7.3 39 43 1005 0.4 17.7 24.4 36.3 95.3 87.1 298.7
08/05 01:30 12.5 69 7.59 7 37 50 1005 0.4 17.5 24.3 36.1 94.6 86.1 295.4
08/05 01:20 12.7 69 7.68 7.3 35 43 1004.9 0.4 17.7 24.4 36.3 95.3 87.1 298.7
08/05 01:10 12.6 68 7.52 7 32 37 1004.8 0.4 17.3 24.2 35.7 93.7 85.1 291.9
08/05 01:00 12.6 69 7.63 7.1 28 43 1004.8 0.4 17.6 24.4 36.2 94.8 86.5 296.8
08/05 00:50 12.6 68 7.52 7 32 35 1004.7 0.4 17.3 24.2 35.7 93.7 85.1 291.8
08/05 00:40 12.3 70 7.6 7 22 28 1004.8 0.4 17.5 24.4 36.2 94.9 86.5 296.6
08/05 00:30 12.4 72 7.87 7.5 19 39 1004.6 0.4 18.1 24.8 37.2 97.6 89.8 308.4
08/05 00:20 11.8 74 7.79 7.3 4 4 1004.7 0.4 18.0 24.8 37.2 97.5 89.5 307.1
08/05 00:10 11.5 74 7.64 7 11 13 1004.7 0.4 17.6 24.7 36.7 96.3 87.9 301.4
08/05 00:00 11.4 76 7.8 7.3 7 13 1004.6 0.4 18.0 25.0 37.4 98.1 90.1 309.1
07/05 23:50 11.2 77 7.81 7.3 7 9 1004.5 0.4 18.0 25.0 37.5 98.4 90.4 310.4
07/05 23:40 10.9 77 7.66 7 9 11 1004.5 0.4 17.7 24.9 37.0 97.2 88.8 304.6
07/05 23:30 10.7 77 7.56 6.8 13 19 1004.6 0.4 17.5 24.8 36.7 96.4 87.7 300.8
07/05 23:20 10.2 79 7.52 6.7 13 15 1004.6 0.4 17.4 24.8 36.8 96.6 87.8 300.8
07/05 23:10 9.8 79 7.33 6.3 13 15 1004.5 0.4 17.1 24.6 36.2 95.0 85.7 293.5
07/05 23:00 9.8 78 7.24 6.2 15 20 1004.7 0.4 16.9 24.5 35.9 94.1 84.5 289.4
07/05 22:50 10 74 6.96 5.7 19 20 1004.8 0.4 16.3 24.0 34.7 90.9 80.6 275.9
07/05 22:40 10.1 73 6.9 5.6 17 17 1004.9 0.4 16.1 23.9 34.4 90.1 79.8 272.8
07/05 22:30 10.2 73 6.95 5.6 22 33 1005.1 0.4 16.2 24.0 34.6 90.6 80.3 274.8
07/05 22:20 10.2 71 6.76 5.3 22 24 1005 0.4 15.8 23.6 33.8 88.6 77.9 266.2
07/05 22:10 10.6 67 6.54 4.7 28 32 1005 0 15.3 23.2 32.8 85.9 74.7 255.0
07/05 22:00 10.6 67 6.54 4.7 33 41 1004.9 0 15.3 23.2 32.8 85.8 74.7 255.0
07/05 21:50 10.6 69 6.74 5.1 35 41 1004.9 0 15.8 23.5 33.6 87.9 77.2 263.9
07/05 21:40 10.5 68 6.6 4.8 39 43 1004.7 0 15.5 23.3 33.1 86.6 75.5 258.0
07/05 21:30 10.4 69 6.65 5 43 50 1004.7 0 15.6 23.4 33.3 87.2 76.2 260.5
07/05 21:20 10.1 70 6.62 5 41 44 1004.7 0 15.5 23.4 33.3 87.2 76.1 260.2
07/05 21:10 9.6 69 6.32 4.2 37 43 1005 0 14.9 23.1 32.4 84.7 72.8 248.4
07/05 21:00 9.7 68 6.27 4.1 37 46 1005 0 14.8 23.0 32.1 84.0 72.1 245.9
07/05 20:50 9.8 66 6.13 3.7 39 44 1005.3 0 14.5 22.8 31.6 82.5 70.2 239.4
07/05 20:40 9.7 66 6.09 3.8 35 44 1005.5 0 14.4 22.8 31.5 82.3 69.8 238.0
07/05 20:30 9.7 67 6.18 3.9 37 44 1005.7 0 14.6 22.9 31.8 83.2 71.0 242.0
07/05 20:20 9.6 63 5.77 2.9 39 43 1005.9 0 13.7 22.3 30.3 79.1 65.9 224.3
07/05 20:10 9.6 65 5.96 3.3 39 43 1006 0 14.1 22.6 31.0 81.1 68.3 232.6
07/05 20:00 9.7 65 5.99 3.4 39 48 1006.4 0 14.2 22.6 31.1 81.3 68.6 233.8

Last Refresh: 08-May-2026 12:09:37

Bureau of Meteorology